Airport View

Enter AWOS ICAO identifier for current METAR.

ex. KFNL

KFHU 251345Z AUTO 21006KT 10SM CLR 21/03 A3016 RMK AO2 SLP140

25 Sep 2020 14:03

Frequency: 119.675

Phone: 520-459-7316

Other Area AWOS: KOLS - KDUG - KTUS - KDMA

TAF KFHU 250600Z 2506/2612 VRB06KT 9999 FEW120 QNH3010INS BECMG 2517/2518 27009KT 9999 FEW120 QNH3006INS TEMPO 2519/2601 27012G18KT TX33/2521Z TN18/2511Z